createdAt,value
2017-10-20T00:00:50.022Z,90.87
2017-10-20T00:03:18.402Z,85.07
2017-10-20T00:05:45.950Z,93.60
2017-10-20T00:08:13.539Z,88.30
2017-10-20T00:10:41.370Z,83.33
2017-10-20T00:13:08.945Z,96.37
2017-10-20T00:15:37.250Z,85.60
2017-10-20T00:18:04.830Z,89.70
2017-10-20T00:20:32.380Z,77.10
2017-10-20T00:23:00.226Z,77.73
2017-10-20T00:25:27.853Z,85.73
2017-10-20T00:27:55.385Z,78.77
2017-10-20T00:30:23.358Z,92.47
2017-10-20T00:32:50.895Z,88.30
2017-10-20T00:35:18.444Z,84.60
2017-10-20T00:37:46.538Z,86.27
2017-10-20T00:40:14.074Z,79.00
2017-10-20T00:42:41.626Z,77.70
2017-10-20T00:45:09.527Z,82.60
2017-10-20T00:47:37.067Z,86.73
2017-10-20T00:50:04.630Z,75.27
2017-10-20T00:52:32.505Z,81.07
2017-10-20T00:55:00.053Z,77.67
2017-10-20T00:57:27.601Z,90.83
2017-10-20T00:59:55.683Z,99.30
2017-10-20T01:02:23.234Z,102.83
2017-10-20T01:04:50.777Z,89.27
2017-10-20T01:07:18.690Z,87.10
2017-10-20T01:09:46.243Z,94.27
2017-10-20T01:12:13.787Z,85.43
2017-10-20T01:14:41.642Z,87.90
2017-10-20T01:17:09.173Z,87.73
2017-10-20T01:19:37.480Z,84.47
2017-10-20T01:22:05.474Z,93.80
2017-10-20T01:24:33.017Z,91.50
2017-10-20T01:27:00.602Z,77.00
2017-10-20T01:29:28.677Z,100.43
2017-10-20T01:31:56.219Z,74.33
2017-10-20T01:34:23.766Z,81.10
2017-10-20T01:36:51.632Z,96.57
2017-10-20T01:39:19.518Z,94.03
2017-10-20T01:41:47.215Z,90.47
2017-10-20T01:44:14.753Z,84.50
2017-10-20T01:46:42.407Z,82.03
2017-10-20T01:49:09.949Z,84.90
2017-10-20T01:51:37.829Z,96.00
2017-10-20T01:54:05.375Z,89.10
2017-10-20T01:56:32.890Z,88.27
2017-10-20T01:59:00.469Z,95.10
2017-10-20T02:01:28.009Z,74.80
2017-10-20T02:03:55.604Z,86.87
2017-10-20T02:06:23.147Z,92.60
2017-10-20T02:08:50.685Z,91.30
2017-10-20T02:11:19.043Z,82.57
2017-10-20T02:13:46.590Z,88.80
2017-10-20T02:16:14.654Z,80.27
2017-10-20T02:18:42.189Z,76.50
2017-10-20T02:21:09.729Z,98.93
2017-10-20T02:23:37.302Z,92.60
2017-10-20T02:26:04.837Z,83.00
2017-10-20T02:28:32.752Z,80.50
2017-10-20T02:31:00.292Z,87.63
2017-10-20T02:33:27.837Z,83.83
2017-10-20T02:35:55.435Z,86.73
2017-10-20T02:38:23.010Z,96.70
2017-10-20T02:40:50.594Z,99.90
2017-10-20T02:43:18.175Z,86.43
2017-10-20T02:45:45.730Z,108.50
2017-10-20T02:48:13.511Z,81.93
2017-10-20T02:50:41.154Z,92.30
2017-10-20T02:53:09.800Z,73.17
2017-10-20T02:55:37.346Z,79.17
2017-10-20T02:58:04.895Z,79.70
2017-10-20T03:00:32.474Z,87.70
2017-10-20T03:03:00.022Z,99.77
2017-10-20T03:05:28.153Z,79.17
2017-10-20T03:07:55.706Z,85.87
2017-10-20T03:10:23.461Z,86.00
2017-10-20T03:12:51.809Z,81.83
2017-10-20T03:15:19.359Z,87.13
2017-10-20T03:17:47.422Z,87.17
2017-10-20T03:20:14.978Z,84.60
2017-10-20T03:22:42.527Z,86.97
2017-10-20T03:25:10.106Z,79.90
2017-10-20T03:27:37.649Z,83.57
2017-10-20T03:30:05.658Z,90.67
2017-10-20T03:32:33.198Z,83.70
2017-10-20T03:35:00.893Z,86.00
2017-10-20T03:37:29.516Z,76.47
2017-10-20T03:39:57.061Z,84.33
2017-10-20T03:42:24.649Z,83.47
2017-10-20T03:44:52.258Z,83.73
2017-10-20T03:47:19.810Z,77.10
2017-10-20T03:49:47.382Z,84.50
2017-10-20T03:52:15.050Z,83.30
2017-10-20T03:54:42.657Z,87.90
2017-10-20T03:57:10.277Z,94.30
2017-10-20T03:59:37.812Z,80.33
2017-10-20T04:02:05.392Z,66.93
2017-10-20T04:04:32.934Z,70.70
2017-10-20T04:07:00.859Z,68.33
2017-10-20T04:09:28.397Z,77.10
2017-10-20T04:11:55.944Z,76.80
2017-10-20T04:14:23.577Z,78.70
2017-10-20T04:16:51.290Z,72.23
2017-10-20T04:19:19.175Z,81.13
2017-10-20T04:21:46.721Z,69.70
2017-10-20T04:24:14.264Z,76.87
2017-10-20T04:26:41.846Z,82.40
2017-10-20T04:29:09.391Z,76.03
2017-10-20T04:31:37.265Z,74.53
2017-10-20T04:34:04.815Z,74.90
2017-10-20T04:36:32.358Z,79.33
2017-10-20T04:39:00.070Z,80.33
2017-10-20T04:41:27.696Z,76.00
2017-10-20T04:43:55.776Z,81.87
2017-10-20T04:46:23.319Z,90.10
2017-10-20T04:48:51.091Z,85.37
2017-10-20T04:51:18.666Z,89.63
2017-10-20T04:53:46.203Z,79.77
2017-10-20T04:56:13.801Z,73.57
2017-10-20T04:58:41.346Z,79.67
2017-10-20T05:01:08.898Z,82.70
2017-10-20T05:03:36.483Z,87.53
2017-10-20T05:06:04.021Z,74.00
2017-10-20T05:08:31.862Z,95.20
2017-10-20T05:10:59.449Z,73.97
2017-10-20T05:13:26.993Z,82.07
2017-10-20T05:15:54.569Z,88.00
2017-10-20T05:18:22.114Z,84.77
2017-10-20T05:20:49.711Z,72.97
2017-10-20T05:23:17.266Z,72.90
2017-10-20T05:25:44.805Z,79.47
2017-10-20T05:28:13.493Z,76.83
2017-10-20T05:30:41.440Z,85.27
2017-10-20T05:33:09.214Z,82.97
2017-10-20T05:35:36.763Z,78.93
2017-10-20T05:38:04.305Z,90.83
2017-10-20T05:40:31.896Z,97.17
2017-10-20T05:42:59.434Z,75.67
2017-10-20T05:45:27.069Z,101.43
2017-10-20T05:47:54.702Z,85.33
2017-10-20T05:50:22.237Z,90.93
2017-10-20T05:52:50.102Z,89.93
2017-10-20T05:55:17.654Z,93.47
2017-10-20T05:57:45.638Z,85.87
2017-10-20T06:00:13.175Z,75.73
2017-10-20T06:02:40.715Z,88.57
2017-10-20T06:05:08.310Z,88.00
2017-10-20T06:07:35.900Z,81.90
2017-10-20T06:10:03.495Z,76.90
2017-10-20T06:12:31.013Z,107.93
2017-10-20T06:14:58.582Z,96.97
2017-10-20T06:17:47.876Z,96.07
2017-10-20T06:20:16.190Z,90.67
2017-10-20T06:22:44.045Z,104.57
2017-10-20T06:25:11.582Z,85.63
2017-10-20T06:27:39.125Z,77.67
2017-10-20T06:30:07.485Z,103.90
2017-10-20T06:32:36.534Z,98.17
2017-10-20T06:35:04.127Z,90.53
2017-10-20T06:37:31.668Z,90.83
2017-10-20T06:39:59.624Z,79.47
2017-10-20T06:42:27.216Z,84.40
2017-10-20T06:44:54.768Z,98.57
2017-10-20T06:47:22.366Z,85.73
2017-10-20T06:49:49.925Z,87.97
2017-10-20T06:52:18.406Z,91.50
2017-10-20T06:54:46.783Z,92.07
2017-10-20T06:57:14.322Z,84.70
2017-10-20T06:59:41.927Z,100.90
2017-10-20T07:02:09.468Z,84.13
2017-10-20T07:04:37.790Z,82.33
2017-10-20T07:07:05.357Z,96.07
2017-10-20T07:09:32.899Z,75.37
2017-10-20T07:12:00.477Z,83.13
2017-10-20T07:14:28.028Z,86.80
2017-10-20T07:16:55.580Z,83.13
2017-10-20T07:19:24.961Z,83.27
2017-10-20T07:21:52.502Z,85.60
2017-10-20T07:24:20.095Z,90.60
2017-10-20T07:26:47.634Z,88.47
2017-10-20T07:29:15.186Z,85.63
2017-10-20T07:31:43.542Z,84.83
2017-10-20T07:34:11.111Z,92.93
2017-10-20T07:36:39.470Z,82.90
2017-10-20T07:39:07.010Z,74.93
2017-10-20T07:41:34.563Z,89.03
2017-10-20T07:44:02.156Z,91.30
2017-10-20T07:46:29.713Z,81.13
2017-10-20T07:48:58.081Z,78.73
2017-10-20T07:51:25.661Z,84.07
2017-10-20T07:53:53.189Z,89.03
2017-10-20T07:56:20.775Z,72.70
2017-10-20T07:58:48.314Z,73.97
2017-10-20T08:01:15.939Z,78.13
2017-10-20T08:03:43.483Z,81.43
2017-10-20T08:06:11.020Z,66.10
2017-10-20T08:08:38.616Z,71.20
2017-10-20T08:11:06.168Z,70.90
2017-10-20T08:13:33.774Z,82.17
2017-10-20T08:16:01.350Z,69.13
2017-10-20T08:18:28.905Z,66.60
2017-10-20T08:20:57.997Z,74.17
2017-10-20T08:23:25.567Z,68.73
2017-10-20T08:25:53.145Z,72.53
2017-10-20T08:28:20.733Z,71.20
2017-10-20T08:30:48.277Z,63.37
2017-10-20T08:33:15.879Z,73.50
2017-10-20T08:35:43.579Z,69.17
2017-10-20T08:38:11.518Z,65.87
2017-10-20T08:40:39.073Z,69.23
2017-10-20T08:43:06.615Z,71.73
2017-10-20T08:45:34.197Z,63.17
2017-10-20T08:48:01.761Z,59.80
2017-10-20T08:50:29.362Z,58.90
2017-10-20T08:52:56.907Z,62.13
2017-10-20T08:55:25.211Z,70.93
2017-10-20T08:57:52.785Z,61.50
2017-10-20T09:00:20.442Z,59.33
2017-10-20T09:02:48.121Z,56.30
2017-10-20T09:05:15.708Z,56.63
2017-10-20T09:07:43.264Z,55.10
2017-10-20T09:10:10.958Z,49.73
2017-10-20T09:12:39.279Z,51.40
2017-10-20T09:15:07.272Z,58.97
2017-10-20T09:17:34.842Z,58.53
2017-10-20T09:20:02.604Z,48.87
2017-10-20T09:22:30.199Z,60.10
2017-10-20T09:24:57.766Z,50.13
2017-10-20T09:27:25.417Z,45.37
2017-10-20T09:29:52.957Z,47.53
2017-10-20T09:32:20.513Z,47.80
2017-10-20T09:34:48.880Z,47.73
2017-10-20T09:37:16.432Z,46.20
2017-10-20T09:39:44.202Z,48.10
2017-10-20T09:42:13.257Z,48.17
2017-10-20T09:44:40.805Z,49.37
2017-10-20T09:47:08.389Z,41.90
2017-10-20T09:49:35.926Z,41.47
2017-10-20T09:52:03.817Z,38.00
2017-10-20T09:54:31.354Z,40.30
2017-10-20T09:56:58.910Z,35.03
2017-10-20T09:59:26.583Z,36.13
2017-10-20T10:01:54.126Z,36.30
2017-10-20T10:04:21.982Z,34.40
2017-10-20T10:06:49.521Z,41.40
2017-10-20T10:09:17.069Z,37.07
2017-10-20T10:11:45.427Z,40.50
2017-10-20T10:14:12.978Z,36.83
2017-10-20T10:16:40.599Z,35.00
2017-10-20T10:19:08.354Z,37.20
2017-10-20T10:21:36.663Z,38.40
2017-10-20T10:24:04.245Z,36.90
2017-10-20T10:26:31.821Z,35.13
2017-10-20T10:28:59.421Z,39.03
2017-10-20T10:31:26.978Z,43.43
2017-10-20T10:33:54.527Z,35.90
2017-10-20T10:36:22.881Z,29.20
2017-10-20T10:38:50.426Z,32.93
2017-10-20T10:41:18.022Z,46.13
2017-10-20T10:43:45.595Z,33.20
2017-10-20T10:46:13.149Z,37.60
2017-10-20T10:48:40.737Z,30.07
2017-10-20T10:51:08.287Z,30.53
2017-10-20T10:53:36.173Z,37.73
2017-10-20T10:56:03.714Z,34.87
2017-10-20T10:58:31.260Z,42.83
2017-10-20T11:00:58.859Z,42.43
2017-10-20T11:03:26.406Z,35.90
2017-10-20T11:06:05.892Z,32.07
2017-10-20T11:08:45.146Z,29.87
2017-10-20T11:11:24.617Z,34.63
2017-10-20T11:13:52.166Z,35.17
2017-10-20T11:16:19.734Z,36.70
2017-10-20T11:18:47.384Z,37.50
2017-10-20T11:21:14.933Z,44.13
2017-10-20T11:23:43.118Z,35.10
2017-10-20T11:26:10.701Z,38.10
2017-10-20T11:28:38.238Z,39.60
2017-10-20T11:31:05.832Z,36.10
2017-10-20T11:33:33.381Z,34.57
2017-10-20T11:36:00.978Z,36.57
2017-10-20T11:38:28.537Z,33.03
2017-10-20T11:40:56.841Z,41.23
2017-10-20T11:43:24.422Z,37.80
2017-10-20T11:45:51.996Z,32.20
2017-10-20T11:48:19.602Z,30.33
2017-10-20T11:50:47.918Z,30.80
2017-10-20T11:53:15.493Z,36.40
2017-10-20T11:55:43.070Z,41.80
2017-10-20T11:58:12.122Z,32.23
2017-10-20T12:00:40.118Z,35.73
2017-10-20T12:03:07.682Z,31.70
2017-10-20T12:05:35.222Z,38.33
2017-10-20T12:08:02.810Z,33.60
2017-10-20T12:10:30.352Z,40.23
2017-10-20T12:12:57.940Z,30.90
2017-10-20T12:15:25.525Z,34.83
2017-10-20T12:17:53.835Z,34.83
2017-10-20T12:20:21.430Z,28.33
2017-10-20T12:22:49.051Z,27.40
2017-10-20T12:25:16.642Z,26.70
2017-10-20T12:27:44.187Z,29.40
2017-10-20T12:30:11.721Z,28.80
2017-10-20T12:32:39.310Z,33.87
2017-10-20T12:35:06.860Z,32.63
2017-10-20T12:37:34.449Z,34.50
2017-10-20T12:40:02.006Z,34.53
2017-10-20T12:42:29.574Z,38.43
2017-10-20T12:44:57.920Z,36.33
2017-10-20T12:47:25.469Z,37.73
2017-10-20T12:49:53.343Z,35.60
2017-10-20T12:52:20.885Z,32.50
2017-10-20T12:54:48.452Z,24.23
2017-10-20T12:57:16.026Z,31.03
2017-10-20T12:59:43.606Z,33.00
2017-10-20T13:02:11.260Z,32.03
2017-10-20T13:04:38.818Z,33.80
2017-10-20T13:07:06.363Z,32.87
2017-10-20T13:09:33.962Z,29.90
2017-10-20T13:12:01.534Z,34.23
2017-10-20T13:14:30.074Z,32.97
2017-10-20T13:16:57.629Z,30.07
2017-10-20T13:19:25.194Z,32.50
2017-10-20T13:21:52.930Z,27.73
2017-10-20T13:24:20.470Z,31.23
2017-10-20T13:26:48.074Z,27.37
2017-10-20T13:29:15.609Z,24.90
2017-10-20T13:31:43.550Z,22.73
2017-10-20T13:34:11.324Z,26.57
2017-10-20T13:36:38.924Z,29.90
2017-10-20T13:39:07.098Z,29.83
2017-10-20T13:41:34.644Z,29.23
2017-10-20T13:44:02.256Z,27.70
2017-10-20T13:46:29.840Z,27.30
2017-10-20T13:48:57.389Z,22.77
2017-10-20T13:51:24.992Z,30.63
2017-10-20T13:53:52.571Z,31.80
2017-10-20T13:56:20.898Z,29.67
2017-10-20T13:58:48.503Z,35.07
2017-10-20T14:01:16.073Z,26.80
2017-10-20T14:03:45.191Z,30.33
2017-10-20T14:06:12.760Z,39.80
2017-10-20T14:08:41.074Z,30.37
2017-10-20T14:11:09.852Z,32.10
2017-10-20T14:13:37.404Z,32.20
2017-10-20T14:16:04.994Z,32.80
2017-10-20T14:18:32.631Z,30.30
2017-10-20T14:21:00.188Z,38.13
2017-10-20T14:23:27.841Z,32.30
2017-10-20T14:25:55.397Z,32.60
2017-10-20T14:28:22.977Z,39.20
2017-10-20T14:30:50.557Z,39.80
2017-10-20T14:33:18.098Z,33.97
2017-10-20T14:35:45.885Z,37.57
2017-10-20T14:38:13.445Z,40.10
2017-10-20T14:40:41.042Z,37.53
2017-10-20T14:43:09.519Z,39.00
2017-10-20T14:45:37.834Z,40.87
2017-10-20T14:48:05.438Z,46.60
2017-10-20T14:50:33.830Z,47.60
2017-10-20T14:53:01.787Z,50.33
2017-10-20T14:55:29.337Z,43.53
2017-10-20T14:57:56.930Z,48.17
2017-10-20T15:00:25.340Z,52.07
2017-10-20T15:02:52.914Z,47.50
2017-10-20T15:05:20.504Z,53.43
2017-10-20T15:07:48.086Z,46.57
2017-10-20T15:10:15.643Z,56.97
2017-10-20T15:12:44.010Z,51.83
2017-10-20T15:15:11.549Z,58.10
2017-10-20T15:17:39.468Z,54.90
2017-10-20T15:20:07.015Z,57.10
2017-10-20T15:22:34.570Z,60.67
2017-10-20T15:25:02.944Z,53.57
2017-10-20T15:27:30.510Z,52.37
2017-10-20T15:29:59.164Z,57.17
2017-10-20T15:32:26.721Z,59.83
2017-10-20T15:34:54.415Z,56.97
2017-10-20T15:37:22.009Z,65.40
2017-10-20T15:39:49.555Z,59.77
2017-10-20T15:42:17.244Z,60.17
2017-10-20T15:44:44.962Z,57.33
2017-10-20T15:47:13.287Z,65.40
2017-10-20T15:49:40.899Z,57.70
2017-10-20T15:52:09.230Z,62.10
2017-10-20T15:54:36.840Z,53.47
2017-10-20T15:57:05.162Z,64.00
2017-10-20T15:59:32.734Z,63.33
2017-10-20T16:02:00.331Z,58.53
2017-10-20T16:04:27.906Z,60.47
2017-10-20T16:06:55.937Z,62.90
2017-10-20T16:09:23.486Z,65.07
2017-10-20T16:11:52.558Z,61.17
2017-10-20T16:14:20.359Z,61.83
2017-10-20T16:16:47.904Z,63.40
2017-10-20T16:19:15.520Z,62.90
2017-10-20T16:21:43.086Z,68.53
2017-10-20T16:24:10.629Z,58.77
2017-10-20T16:26:38.998Z,61.90
2017-10-20T16:29:06.554Z,68.47
2017-10-20T16:31:34.918Z,63.13
2017-10-20T16:34:02.474Z,64.37
2017-10-20T16:36:30.150Z,61.33
2017-10-20T16:38:58.547Z,69.13
2017-10-20T16:41:26.134Z,68.73
2017-10-20T16:43:53.910Z,63.83
2017-10-20T16:46:21.469Z,77.97
2017-10-20T16:48:49.015Z,64.57
2017-10-20T16:51:16.613Z,74.13
2017-10-20T16:53:45.695Z,61.50
2017-10-20T16:56:13.302Z,66.60
2017-10-20T16:58:41.623Z,60.50
2017-10-20T17:01:09.209Z,61.00
2017-10-20T17:03:37.602Z,61.03
2017-10-20T17:06:05.165Z,65.50
2017-10-20T17:08:33.583Z,81.27
2017-10-20T17:11:01.154Z,64.77
2017-10-20T17:13:28.715Z,76.63
2017-10-20T17:15:56.309Z,71.27
2017-10-20T17:18:23.899Z,69.73
2017-10-20T17:20:52.489Z,78.27
2017-10-20T17:23:20.076Z,80.53
2017-10-20T17:25:47.634Z,81.20
2017-10-20T17:28:15.242Z,75.60
2017-10-20T17:30:42.785Z,83.53
2017-10-20T17:33:10.399Z,80.17
2017-10-20T17:35:38.008Z,68.53
2017-10-20T17:38:07.151Z,79.83
2017-10-20T17:40:34.720Z,70.57
2017-10-20T17:43:02.265Z,85.20
2017-10-20T17:45:30.170Z,71.83
2017-10-20T17:47:57.693Z,74.60
2017-10-20T17:50:25.243Z,80.60
2017-10-20T17:52:52.857Z,78.80
2017-10-20T17:55:20.407Z,71.33
2017-10-20T17:57:48.025Z,85.43
2017-10-20T18:00:15.588Z,80.93
2017-10-20T18:02:43.154Z,79.73
2017-10-20T18:05:10.758Z,78.43
2017-10-20T18:07:38.413Z,76.73
2017-10-20T18:10:06.080Z,75.90
2017-10-20T18:12:33.630Z,75.90
2017-10-20T18:15:01.377Z,72.87
2017-10-20T18:17:28.975Z,64.63
2017-10-20T18:19:56.597Z,64.27
2017-10-20T18:22:24.210Z,73.43
2017-10-20T18:24:51.806Z,64.90
2017-10-20T18:27:19.391Z,75.13
2017-10-20T18:29:46.972Z,70.30
2017-10-20T18:32:14.528Z,73.13
2017-10-20T18:34:42.784Z,81.70
2017-10-20T18:37:10.371Z,80.63
2017-10-20T18:39:38.718Z,85.43
2017-10-20T18:42:06.750Z,73.77
2017-10-20T18:44:35.225Z,71.00
2017-10-20T18:47:03.607Z,62.13
2017-10-20T18:49:31.947Z,64.10
2017-10-20T18:52:00.188Z,76.90
2017-10-20T18:54:28.711Z,80.43
2017-10-20T18:56:58.487Z,75.30
2017-10-20T18:59:26.640Z,70.47
2017-10-20T19:01:54.195Z,68.40
2017-10-20T19:04:21.777Z,90.73
2017-10-20T19:06:49.445Z,72.40
2017-10-20T19:09:17.031Z,103.90
2017-10-20T19:11:44.653Z,75.20
2017-10-20T19:14:12.215Z,76.63
2017-10-20T19:16:39.786Z,80.23
2017-10-20T19:19:07.366Z,76.17
2017-10-20T19:21:34.948Z,72.60
2017-10-20T19:24:03.417Z,68.80
2017-10-20T19:26:30.982Z,80.90
2017-10-20T19:29:00.050Z,80.20
2017-10-20T19:31:27.647Z,77.53
2017-10-20T19:33:55.208Z,71.27
2017-10-20T19:36:23.225Z,77.67
2017-10-20T19:38:51.367Z,78.10
2017-10-20T19:41:18.926Z,74.10
2017-10-20T19:43:47.537Z,80.37
2017-10-20T19:46:15.186Z,79.97
2017-10-20T19:48:42.818Z,81.77
2017-10-20T19:51:10.491Z,84.20
2017-10-20T19:53:38.047Z,74.20
2017-10-20T19:56:06.458Z,76.63
2017-10-20T19:58:34.037Z,80.27
2017-10-20T20:01:01.727Z,75.87
2017-10-20T20:03:30.790Z,71.87
2017-10-20T20:05:58.379Z,72.67
2017-10-20T20:08:25.978Z,76.90
2017-10-20T20:10:53.522Z,74.90
2017-10-20T20:13:22.167Z,64.70
2017-10-20T20:15:49.730Z,77.87
2017-10-20T20:18:17.280Z,62.70
2017-10-20T20:20:44.871Z,69.67
2017-10-20T20:23:12.680Z,77.20
2017-10-20T20:25:40.321Z,74.17
2017-10-20T20:28:08.726Z,66.33
2017-10-20T20:30:38.777Z,65.73
2017-10-20T20:33:11.097Z,64.23
2017-10-20T20:35:38.694Z,56.97
2017-10-20T20:38:06.430Z,41.07
2017-10-20T20:40:33.982Z,36.10
2017-10-20T20:43:01.530Z,37.83
2017-10-20T20:45:29.879Z,19.50
2017-10-20T20:47:57.434Z,16.30
2017-10-20T20:50:25.055Z,17.23
2017-10-20T20:52:52.720Z,12.73
2017-10-20T20:55:20.282Z,10.87
2017-10-20T20:57:48.181Z,6.23
2017-10-20T21:00:15.814Z,7.00
2017-10-20T21:02:43.630Z,5.10
2017-10-20T21:05:11.948Z,47.20
2017-10-20T21:07:39.490Z,4.87
2017-10-20T21:10:07.075Z,3.90
2017-10-20T21:12:34.623Z,3.67
2017-10-20T21:15:02.521Z,11.13
2017-10-20T21:17:30.086Z,3.40
2017-10-20T21:19:57.642Z,2.93
2017-10-20T21:22:25.354Z,5.80
2017-10-20T21:24:52.933Z,4.60
2017-10-20T21:27:20.525Z,4.40
2017-10-20T21:29:48.058Z,4.20
2017-10-20T21:32:15.617Z,2.67
2017-10-20T21:34:43.218Z,4.80
2017-10-20T21:37:10.776Z,2.73
2017-10-20T21:39:38.369Z,3.40
2017-10-20T21:42:06.753Z,10.27
2017-10-20T21:44:34.300Z,2.07
2017-10-20T21:47:02.635Z,3.37
2017-10-20T21:49:30.250Z,4.00
2017-10-20T21:51:58.120Z,4.73
2017-10-20T21:54:25.658Z,5.50
2017-10-20T21:56:53.202Z,3.70
2017-10-20T21:59:20.805Z,5.27
2017-10-20T22:01:48.344Z,2.63
2017-10-20T22:04:16.709Z,4.43
2017-10-20T22:06:44.274Z,2.13
2017-10-20T22:09:12.580Z,3.43
2017-10-20T22:11:40.186Z,2.37
2017-10-20T22:14:07.727Z,4.73
2017-10-20T22:16:35.441Z,2.03
2017-10-20T22:19:02.993Z,4.17
2017-10-20T22:21:31.297Z,2.63
2017-10-20T22:23:58.856Z,1.97
2017-10-20T22:26:26.507Z,3.00
2017-10-20T22:28:54.102Z,1.53
2017-10-20T22:31:21.669Z,8.07
2017-10-20T22:33:49.372Z,3.27
2017-10-20T22:36:17.715Z,4.63
2017-10-20T22:38:45.265Z,3.73
2017-10-20T22:41:12.851Z,4.70
2017-10-20T22:43:40.383Z,3.30
2017-10-20T22:46:07.930Z,3.17
2017-10-20T22:48:35.501Z,5.13
2017-10-20T22:51:03.036Z,2.17
2017-10-20T22:53:30.630Z,4.23
2017-10-20T22:55:58.290Z,2.27
2017-10-20T22:58:25.839Z,2.07
2017-10-20T23:00:54.203Z,8.73
2017-10-20T23:03:21.757Z,2.60
2017-10-20T23:05:50.123Z,3.07
2017-10-20T23:08:17.667Z,2.37
2017-10-20T23:10:45.214Z,2.03
2017-10-20T23:13:12.813Z,7.03
2017-10-20T23:15:40.524Z,2.20
2017-10-20T23:18:08.120Z,4.30
2017-10-20T23:20:35.670Z,6.97
2017-10-20T23:23:03.273Z,4.87
2017-10-20T23:25:31.577Z,3.97
2017-10-20T23:27:59.161Z,4.27
2017-10-20T23:30:26.697Z,7.40
2017-10-20T23:32:54.236Z,5.23
2017-10-20T23:35:21.824Z,6.07
2017-10-20T23:37:49.369Z,5.13
2017-10-20T23:40:16.976Z,4.73
2017-10-20T23:42:44.527Z,4.03
2017-10-20T23:45:12.062Z,2.50
2017-10-20T23:47:39.639Z,3.47
2017-10-20T23:50:07.313Z,8.07
2017-10-20T23:52:35.226Z,3.80
2017-10-20T23:55:03.530Z,3.63
2017-10-20T23:57:31.090Z,4.83
2017-10-20T23:59:58.693Z,4.00
